createdAt,value
2019-03-26T00:00:16.643Z,64.70
2019-03-26T00:02:48.014Z,63.68
2019-03-26T00:05:17.888Z,64.22
2019-03-26T00:07:47.891Z,56.00
2019-03-26T00:10:23.293Z,62.13
2019-03-26T00:12:53.498Z,74.10
2019-03-26T00:15:26.372Z,73.55
2019-03-26T00:17:57.602Z,68.20
2019-03-26T00:20:27.489Z,71.77
2019-03-26T00:23:06.362Z,78.92
2019-03-26T00:25:36.504Z,72.20
2019-03-26T00:28:10.914Z,67.75
2019-03-26T00:30:40.879Z,63.90
2019-03-26T00:33:10.684Z,65.60
2019-03-26T00:35:45.016Z,56.48
2019-03-26T00:38:15.176Z,62.50
2019-03-26T00:40:50.343Z,86.87
2019-03-26T00:43:20.524Z,115.35
2019-03-26T00:45:50.372Z,94.47
2019-03-26T00:48:20.524Z,92.20
2019-03-26T00:50:50.642Z,98.03
2019-03-26T00:53:20.552Z,101.05
2019-03-26T00:55:53.519Z,93.25
2019-03-26T00:58:24.756Z,99.28
2019-03-26T01:00:55.707Z,97.45
2019-03-26T01:03:26.556Z,111.42
2019-03-26T01:05:56.788Z,106.80
2019-03-26T01:08:26.933Z,94.70
2019-03-26T01:11:01.398Z,110.72
2019-03-26T01:13:33.970Z,117.22
2019-03-26T01:16:03.826Z,100.42
2019-03-26T01:18:33.592Z,95.32
2019-03-26T01:21:05.173Z,93.53
2019-03-26T01:23:35.306Z,82.40
2019-03-26T01:26:05.651Z,89.15
2019-03-26T01:28:35.541Z,80.15
2019-03-26T01:31:05.545Z,71.00
2019-03-26T01:33:38.290Z,76.25
2019-03-26T01:36:08.485Z,75.28
2019-03-26T01:38:38.295Z,70.72
2019-03-26T01:41:09.752Z,61.20
2019-03-26T01:43:39.760Z,61.40
2019-03-26T01:46:09.703Z,59.77
2019-03-26T01:48:39.834Z,81.95
2019-03-26T01:51:15.548Z,81.95
2019-03-26T01:53:45.513Z,75.72
2019-03-26T01:56:15.514Z,68.55
2019-03-26T01:58:45.629Z,59.18
2019-03-26T02:01:15.872Z,66.97
2019-03-26T02:03:45.926Z,60.92
2019-03-26T02:06:24.416Z,59.73
2019-03-26T02:08:54.348Z,81.80
2019-03-26T02:11:24.534Z,73.83
2019-03-26T02:13:54.388Z,72.78
2019-03-26T02:16:24.371Z,67.60
2019-03-26T02:18:54.209Z,76.87
2019-03-26T02:21:24.043Z,78.75
2019-03-26T02:23:53.935Z,74.95
2019-03-26T02:26:23.751Z,72.30
2019-03-26T02:28:53.762Z,73.92
2019-03-26T02:31:27.347Z,69.55
2019-03-26T02:33:57.125Z,62.10
2019-03-26T02:36:27.066Z,69.05
2019-03-26T02:38:56.942Z,76.57
2019-03-26T02:41:26.871Z,72.67
2019-03-26T02:44:02.134Z,73.02
2019-03-26T02:46:32.342Z,69.95
2019-03-26T02:49:02.267Z,62.45
2019-03-26T02:51:32.358Z,52.20
2019-03-26T02:54:02.491Z,59.30
2019-03-26T02:56:32.714Z,57.50
2019-03-26T02:59:09.040Z,68.83
2019-03-26T03:01:38.956Z,70.52
2019-03-26T03:04:09.156Z,66.20
2019-03-26T03:06:47.438Z,76.15
2019-03-26T03:09:17.568Z,84.70
2019-03-26T03:11:48.540Z,74.70
2019-03-26T03:14:18.770Z,60.83
2019-03-26T03:16:49.015Z,71.28
2019-03-26T03:19:19.283Z,76.45
2019-03-26T03:21:49.495Z,76.95
2019-03-26T03:24:20.806Z,66.55
2019-03-26T03:26:51.229Z,68.00
2019-03-26T03:29:21.273Z,64.72
2019-03-26T03:31:51.348Z,61.92
2019-03-26T03:34:21.507Z,75.32
2019-03-26T03:36:51.379Z,81.20
2019-03-26T03:39:21.381Z,81.47
2019-03-26T03:41:54.387Z,80.72
2019-03-26T03:44:24.446Z,61.68
2019-03-26T03:46:55.066Z,57.55
2019-03-26T03:49:26.472Z,73.70
2019-03-26T03:51:57.841Z,84.87
2019-03-26T03:54:27.665Z,78.83
2019-03-26T03:57:06.928Z,77.90
2019-03-26T03:59:37.840Z,88.15
2019-03-26T04:02:07.982Z,86.40
2019-03-26T04:04:37.707Z,78.52
2019-03-26T04:07:07.774Z,76.55
2019-03-26T04:09:37.592Z,80.50
2019-03-26T04:12:07.485Z,86.15
2019-03-26T04:14:37.594Z,89.25
2019-03-26T04:17:07.695Z,91.35
2019-03-26T04:19:37.902Z,91.63
2019-03-26T04:22:22.864Z,86.95
2019-03-26T04:24:52.630Z,87.55
2019-03-26T04:27:24.207Z,88.83
2019-03-26T04:29:56.739Z,84.25
2019-03-26T04:32:26.773Z,88.52
2019-03-26T04:34:56.682Z,70.70
2019-03-26T04:37:35.203Z,45.15
2019-03-26T04:40:05.587Z,62.38
2019-03-26T04:42:35.527Z,66.05
2019-03-26T04:45:05.641Z,67.50
2019-03-26T04:47:37.049Z,63.55
2019-03-26T04:50:08.132Z,49.08
2019-03-26T04:52:50.306Z,74.53
2019-03-26T04:55:20.321Z,66.00
2019-03-26T04:57:50.479Z,75.25
2019-03-26T05:00:21.069Z,67.40
2019-03-26T05:02:51.165Z,67.62
2019-03-26T05:05:22.417Z,57.60
2019-03-26T05:07:52.979Z,62.33
2019-03-26T05:10:23.298Z,62.03
2019-03-26T05:12:53.787Z,67.72
2019-03-26T05:15:23.950Z,74.05
2019-03-26T05:17:57.693Z,72.95
2019-03-26T05:20:29.825Z,74.75
2019-03-26T05:23:00.698Z,68.83
2019-03-26T05:25:31.130Z,71.15
2019-03-26T05:28:01.661Z,57.05
2019-03-26T05:30:33.109Z,50.95
2019-03-26T05:33:03.280Z,53.48
2019-03-26T05:35:33.578Z,47.55
2019-03-26T05:38:03.686Z,44.30
2019-03-26T05:40:34.046Z,44.00
2019-03-26T05:43:04.014Z,40.88
2019-03-26T05:45:34.458Z,45.83
2019-03-26T05:48:06.450Z,47.65
2019-03-26T05:50:36.947Z,54.93
2019-03-26T05:53:07.476Z,52.33
2019-03-26T05:55:37.497Z,59.75
2019-03-26T05:58:07.948Z,61.02
2019-03-26T06:00:39.881Z,53.58
2019-03-26T06:03:10.142Z,47.58
2019-03-26T06:05:40.603Z,61.02
2019-03-26T06:08:11.208Z,59.35
2019-03-26T06:10:41.761Z,47.58
2019-03-26T06:13:12.215Z,58.38
2019-03-26T06:15:42.198Z,54.65
2019-03-26T06:18:12.808Z,55.03
2019-03-26T06:20:43.239Z,57.48
2019-03-26T06:23:13.823Z,58.73
2019-03-26T06:25:44.078Z,51.68
2019-03-26T06:28:14.867Z,60.70
2019-03-26T06:30:45.182Z,61.50
2019-03-26T06:33:15.718Z,59.25
2019-03-26T06:35:46.370Z,67.17
2019-03-26T06:38:17.202Z,57.25
2019-03-26T06:40:47.932Z,49.95
2019-03-26T06:43:18.631Z,58.98
2019-03-26T06:45:49.127Z,57.35
2019-03-26T06:48:19.833Z,55.63
2019-03-26T06:50:52.766Z,61.83
2019-03-26T06:53:23.603Z,57.73
2019-03-26T06:55:54.276Z,56.53
2019-03-26T06:58:30.739Z,60.48
2019-03-26T07:01:01.334Z,58.10
2019-03-26T07:03:31.983Z,39.10
2019-03-26T07:06:05.142Z,57.10
2019-03-26T07:08:35.615Z,49.42
2019-03-26T07:11:07.646Z,54.42
2019-03-26T07:13:38.122Z,59.45
2019-03-26T07:16:08.752Z,53.52
2019-03-26T07:18:39.517Z,55.38
2019-03-26T07:21:09.957Z,52.03
2019-03-26T07:23:42.078Z,49.00
2019-03-26T07:26:12.963Z,47.08
2019-03-26T07:28:43.489Z,48.17
2019-03-26T07:31:13.890Z,43.75
2019-03-26T07:33:44.111Z,44.15
2019-03-26T07:36:14.540Z,68.60
2019-03-26T07:38:45.267Z,89.10
2019-03-26T07:41:15.690Z,67.78
2019-03-26T07:43:46.970Z,77.85
2019-03-26T07:46:17.338Z,51.50
2019-03-26T07:48:47.898Z,67.40
2019-03-26T07:51:18.393Z,52.67
2019-03-26T07:53:49.155Z,46.75
2019-03-26T07:56:19.636Z,39.58
2019-03-26T07:58:50.003Z,38.80
2019-03-26T08:01:20.689Z,39.20
2019-03-26T08:03:51.323Z,42.05
2019-03-26T08:06:21.562Z,41.95
2019-03-26T08:08:52.564Z,40.78
2019-03-26T08:11:22.795Z,41.88
2019-03-26T08:13:53.047Z,35.15
2019-03-26T08:16:23.440Z,40.80
2019-03-26T08:18:54.231Z,39.80
2019-03-26T08:21:24.501Z,39.35
2019-03-26T08:23:55.252Z,32.88
2019-03-26T08:26:26.153Z,34.35
2019-03-26T08:29:00.819Z,31.42
2019-03-26T08:31:29.939Z,38.73
2019-03-26T08:34:00.467Z,32.60
2019-03-26T08:36:30.549Z,30.20
2019-03-26T08:39:01.127Z,30.08
2019-03-26T08:41:33.375Z,26.30
2019-03-26T08:44:03.608Z,24.57
2019-03-26T08:46:33.782Z,27.00
2019-03-26T08:49:04.547Z,24.70
2019-03-26T08:51:34.685Z,27.62
2019-03-26T08:54:05.539Z,27.65
2019-03-26T08:56:36.410Z,27.20
2019-03-26T08:59:07.305Z,28.50
2019-03-26T09:01:38.329Z,28.85
2019-03-26T09:04:09.267Z,21.55
2019-03-26T09:06:39.825Z,25.90
2019-03-26T09:09:10.155Z,25.12
2019-03-26T09:11:40.319Z,21.52
2019-03-26T09:14:11.165Z,25.90
2019-03-26T09:16:41.411Z,24.07
2019-03-26T09:19:11.987Z,21.17
2019-03-26T09:21:42.444Z,22.85
2019-03-26T09:24:14.160Z,20.77
2019-03-26T09:26:44.777Z,25.37
2019-03-26T09:29:15.631Z,24.40
2019-03-26T09:31:46.375Z,21.87
2019-03-26T09:34:17.272Z,23.10
2019-03-26T09:36:48.084Z,21.73
2019-03-26T09:39:19.013Z,20.35
2019-03-26T09:41:49.591Z,21.27
2019-03-26T09:44:20.198Z,15.98
2019-03-26T09:46:50.661Z,18.23
2019-03-26T09:49:21.087Z,20.23
2019-03-26T09:51:51.739Z,14.20
2019-03-26T09:54:22.691Z,15.25
2019-03-26T09:56:53.327Z,17.15
2019-03-26T09:59:24.106Z,14.90
2019-03-26T10:01:54.448Z,14.60
2019-03-26T10:04:25.273Z,15.10
2019-03-26T10:06:55.698Z,16.12
2019-03-26T10:09:26.523Z,12.37
2019-03-26T10:11:57.484Z,13.80
2019-03-26T10:14:28.301Z,14.73
2019-03-26T10:16:59.008Z,13.05
2019-03-26T10:19:29.858Z,18.75
2019-03-26T10:22:00.550Z,13.72
2019-03-26T10:24:31.372Z,16.93
2019-03-26T10:27:10.555Z,15.40
2019-03-26T10:29:41.148Z,14.78
2019-03-26T10:32:11.843Z,13.93
2019-03-26T10:34:42.763Z,20.23
2019-03-26T10:37:13.563Z,14.78
2019-03-26T10:39:44.006Z,16.73
2019-03-26T10:42:14.768Z,16.37
2019-03-26T10:44:45.280Z,12.43
2019-03-26T10:47:15.952Z,11.03
2019-03-26T10:49:46.361Z,16.42
2019-03-26T10:52:17.070Z,15.13
2019-03-26T10:54:47.982Z,14.03
2019-03-26T10:57:21.799Z,9.53
2019-03-26T10:59:51.589Z,12.47
2019-03-26T11:02:22.068Z,14.00
2019-03-26T11:04:53.126Z,9.80
2019-03-26T11:07:23.722Z,15.55
2019-03-26T11:09:54.605Z,10.95
2019-03-26T11:12:25.520Z,11.85
2019-03-26T11:15:11.743Z,9.65
2019-03-26T11:17:42.255Z,10.72
2019-03-26T11:20:13.330Z,9.43
2019-03-26T11:22:43.956Z,10.82
2019-03-26T11:25:14.779Z,9.80
2019-03-26T11:27:45.162Z,10.60
2019-03-26T11:30:15.961Z,11.70
2019-03-26T11:32:47.851Z,13.28
2019-03-26T11:35:19.664Z,16.02
2019-03-26T11:37:50.682Z,12.90
2019-03-26T11:40:21.085Z,12.37
2019-03-26T11:42:51.377Z,8.48
2019-03-26T11:45:22.505Z,10.43
2019-03-26T11:47:52.691Z,11.50
2019-03-26T11:50:23.406Z,10.68
2019-03-26T11:52:53.654Z,14.25
2019-03-26T11:55:24.522Z,13.03
2019-03-26T11:57:54.525Z,7.70
2019-03-26T12:00:26.875Z,12.00
2019-03-26T12:05:26.943Z,7.65
2019-03-26T12:07:57.097Z,8.60
2019-03-26T12:10:36.618Z,9.35
2019-03-26T12:13:06.925Z,5.08
2019-03-26T12:15:37.379Z,8.53
2019-03-26T12:18:08.019Z,8.13
2019-03-26T12:20:38.811Z,7.10
2019-03-26T12:23:09.260Z,6.12
2019-03-26T12:25:40.900Z,8.27
2019-03-26T12:28:11.296Z,4.95
2019-03-26T12:30:41.856Z,8.93
2019-03-26T12:33:21.072Z,7.75
2019-03-26T12:35:51.706Z,10.28
2019-03-26T12:38:22.343Z,10.30
2019-03-26T12:40:53.541Z,8.60
2019-03-26T12:43:23.834Z,10.55
2019-03-26T12:45:55.687Z,12.53
2019-03-26T12:48:25.916Z,7.45
2019-03-26T12:50:56.171Z,11.73
2019-03-26T12:53:26.928Z,9.30
2019-03-26T12:55:57.863Z,7.33
2019-03-26T12:58:32.124Z,7.85
2019-03-26T13:01:00.369Z,9.03
2019-03-26T13:03:30.495Z,10.28
2019-03-26T13:06:00.384Z,9.90
2019-03-26T13:08:30.347Z,11.48
2019-03-26T13:11:00.766Z,12.93
2019-03-26T13:13:30.783Z,11.93
2019-03-26T13:16:01.160Z,13.25
2019-03-26T13:18:31.248Z,9.93
2019-03-26T13:21:01.238Z,8.80
2019-03-26T13:23:31.159Z,10.48
2019-03-26T13:26:01.040Z,12.28
2019-03-26T13:28:31.569Z,11.20
2019-03-26T13:31:01.438Z,8.33
2019-03-26T13:33:31.484Z,11.65
2019-03-26T13:36:01.559Z,7.42
2019-03-26T13:38:31.487Z,9.83
2019-03-26T13:41:01.723Z,12.78
2019-03-26T13:43:32.841Z,8.43
2019-03-26T13:46:02.999Z,7.10
2019-03-26T13:48:33.164Z,6.08
2019-03-26T13:51:03.399Z,8.45
2019-03-26T13:53:33.735Z,7.92
2019-03-26T13:56:03.870Z,7.90
2019-03-26T13:58:35.545Z,7.30
2019-03-26T14:01:05.572Z,5.97
2019-03-26T14:03:35.887Z,6.42
2019-03-26T14:06:06.081Z,7.17
2019-03-26T14:08:36.253Z,9.58
2019-03-26T14:11:06.282Z,9.25
2019-03-26T14:13:36.292Z,7.83
2019-03-26T14:16:06.427Z,4.70
2019-03-26T14:18:36.440Z,9.38
2019-03-26T14:21:06.518Z,8.15
2019-03-26T14:23:36.529Z,12.28
2019-03-26T14:26:07.042Z,8.45
2019-03-26T14:28:38.170Z,79.43
2019-03-26T14:31:08.198Z,55.50
2019-03-26T14:33:38.330Z,44.95
2019-03-26T14:36:09.901Z,5.60
2019-03-26T14:38:40.078Z,4.75
2019-03-26T14:41:10.278Z,2.65
2019-03-26T14:43:40.278Z,9.03
2019-03-26T14:46:10.260Z,6.10
2019-03-26T14:48:40.381Z,4.25
2019-03-26T14:51:10.358Z,9.83
2019-03-26T14:53:40.519Z,6.80
2019-03-26T14:56:10.799Z,15.30
2019-03-26T14:58:40.687Z,16.05
2019-03-26T15:01:10.487Z,6.70
2019-03-26T15:03:40.393Z,54.23
2019-03-26T15:06:10.217Z,8.15
2019-03-26T15:08:40.015Z,7.80
2019-03-26T15:11:09.786Z,9.48
2019-03-26T15:13:39.655Z,39.40
2019-03-26T15:16:10.722Z,77.78
2019-03-26T15:18:40.462Z,8.10
2019-03-26T15:21:10.415Z,11.22
2019-03-26T15:23:40.194Z,18.25
2019-03-26T15:26:10.070Z,8.95
2019-03-26T15:28:39.956Z,15.45
2019-03-26T15:31:09.740Z,13.78
2019-03-26T15:33:39.574Z,10.35
2019-03-26T15:36:09.320Z,10.85
2019-03-26T15:38:39.149Z,11.28
2019-03-26T15:41:20.945Z,11.10
2019-03-26T15:43:40.390Z,7.33
2019-03-26T15:46:10.152Z,11.68
2019-03-26T15:48:39.990Z,8.73
2019-03-26T15:51:09.782Z,33.30
2019-03-26T15:53:39.784Z,14.70
2019-03-26T15:56:09.961Z,18.20
2019-03-26T15:58:39.785Z,86.65
2019-03-26T16:01:09.701Z,22.02
2019-03-26T16:03:39.907Z,56.98
2019-03-26T16:06:09.871Z,65.42
2019-03-26T16:08:39.775Z,24.45
2019-03-26T16:11:09.881Z,21.42
2019-03-26T16:13:40.069Z,88.50
2019-03-26T16:16:10.211Z,36.30
2019-03-26T16:18:41.497Z,20.30
2019-03-26T16:21:11.390Z,21.77
2019-03-26T16:23:41.432Z,38.55
2019-03-26T16:26:11.397Z,46.85
2019-03-26T16:28:41.302Z,37.70
2019-03-26T16:31:12.422Z,14.98
2019-03-26T16:33:48.222Z,39.38
2019-03-26T16:36:18.072Z,63.05
2019-03-26T16:38:48.242Z,24.52
2019-03-26T16:41:18.370Z,16.57
2019-03-26T16:43:48.198Z,10.60
2019-03-26T16:46:18.247Z,9.98
2019-03-26T16:48:48.053Z,9.95
2019-03-26T16:51:17.869Z,9.78
2019-03-26T16:53:47.663Z,47.75
2019-03-26T16:56:17.558Z,19.55
2019-03-26T16:58:47.494Z,11.57
2019-03-26T17:01:17.486Z,19.48
2019-03-26T17:03:47.554Z,12.45
2019-03-26T17:06:17.402Z,29.45
2019-03-26T17:08:47.484Z,22.22
2019-03-26T17:11:17.406Z,21.42
2019-03-26T17:13:47.276Z,41.48
2019-03-26T17:16:17.107Z,22.10
2019-03-26T17:18:47.218Z,17.82
2019-03-26T17:21:18.530Z,28.52
2019-03-26T17:23:48.803Z,24.52
2019-03-26T17:26:19.024Z,24.85
2019-03-26T17:28:49.255Z,25.62
2019-03-26T17:31:19.513Z,14.00
2019-03-26T17:33:49.741Z,41.65
2019-03-26T17:36:22.707Z,19.67
2019-03-26T17:38:52.698Z,12.55
2019-03-26T17:41:22.728Z,24.52
2019-03-26T17:43:54.527Z,27.75
2019-03-26T17:46:24.389Z,42.50
2019-03-26T17:48:54.183Z,38.88
2019-03-26T17:51:24.122Z,73.92
2019-03-26T17:53:54.074Z,112.50
2019-03-26T17:56:24.206Z,101.07
2019-03-26T17:58:55.572Z,33.10
2019-03-26T18:01:25.523Z,17.85
2019-03-26T18:03:55.296Z,13.83
2019-03-26T18:06:25.464Z,15.90
2019-03-26T18:08:56.979Z,14.47
2019-03-26T18:11:27.162Z,22.75
2019-03-26T18:13:57.072Z,25.12
2019-03-26T18:16:27.222Z,35.03
2019-03-26T18:18:57.064Z,34.78
2019-03-26T18:21:26.946Z,36.05
2019-03-26T18:23:56.856Z,21.00
2019-03-26T18:26:26.628Z,39.67
2019-03-26T18:28:56.557Z,22.30
2019-03-26T18:31:26.417Z,24.47
2019-03-26T18:33:56.299Z,23.50
2019-03-26T18:36:26.209Z,15.80
2019-03-26T18:38:56.205Z,20.62
2019-03-26T18:41:25.915Z,19.75
2019-03-26T18:43:55.782Z,23.70
2019-03-26T18:46:25.873Z,23.40
2019-03-26T18:48:55.992Z,17.15
2019-03-26T18:51:26.228Z,33.20
2019-03-26T18:53:56.152Z,38.00
2019-03-26T18:56:25.938Z,35.52
2019-03-26T18:58:56.068Z,39.20
2019-03-26T19:01:26.557Z,47.43
2019-03-26T19:03:56.532Z,47.78
2019-03-26T19:06:26.499Z,28.70
2019-03-26T19:08:56.590Z,10.95
2019-03-26T19:11:26.387Z,17.82
2019-03-26T19:13:56.228Z,13.25
2019-03-26T19:16:27.197Z,21.52
2019-03-26T19:18:57.033Z,21.62
2019-03-26T19:21:26.887Z,13.83
2019-03-26T19:24:03.928Z,11.10
2019-03-26T19:26:28.408Z,26.15
2019-03-26T19:28:58.198Z,22.35
2019-03-26T19:31:28.207Z,67.62
2019-03-26T19:33:58.073Z,20.90
2019-03-26T19:36:27.901Z,33.48
2019-03-26T19:38:57.842Z,20.08
2019-03-26T19:41:27.965Z,16.45
2019-03-26T19:43:57.838Z,12.50
2019-03-26T19:46:27.618Z,14.18
2019-03-26T19:48:57.675Z,19.45
2019-03-26T19:51:27.415Z,26.73
2019-03-26T19:53:57.390Z,14.00
2019-03-26T19:56:28.486Z,14.38
2019-03-26T19:58:58.403Z,11.40
2019-03-26T20:01:28.346Z,12.23
2019-03-26T20:03:58.333Z,15.88
2019-03-26T20:06:28.089Z,21.70
2019-03-26T20:08:58.188Z,20.92
2019-03-26T20:11:28.264Z,22.40
2019-03-26T20:13:58.476Z,21.57
2019-03-26T20:16:41.057Z,19.62
2019-03-26T20:19:00.162Z,20.72
2019-03-26T20:21:29.962Z,16.35
2019-03-26T20:24:00.069Z,24.23
2019-03-26T20:26:29.808Z,22.35
2019-03-26T20:29:01.600Z,21.33
2019-03-26T20:34:02.452Z,17.37
2019-03-26T20:36:33.525Z,24.87
2019-03-26T20:39:03.567Z,20.05
2019-03-26T20:41:35.183Z,19.60
2019-03-26T20:44:05.119Z,15.55
2019-03-26T20:46:35.215Z,17.67
2019-03-26T20:49:05.996Z,15.05
2019-03-26T20:51:36.363Z,13.40
2019-03-26T20:54:08.147Z,15.08
2019-03-26T20:56:40.819Z,9.50
2019-03-26T20:59:10.477Z,10.38
2019-03-26T21:01:40.858Z,12.47
2019-03-26T21:04:12.465Z,32.42
2019-03-26T21:06:42.369Z,47.40
2019-03-26T21:09:12.200Z,37.88
2019-03-26T21:11:42.219Z,46.98
2019-03-26T21:14:12.217Z,35.52
2019-03-26T21:16:42.474Z,29.30
2019-03-26T21:19:12.447Z,24.32
2019-03-26T21:21:42.417Z,21.30
2019-03-26T21:24:12.436Z,14.58
2019-03-26T21:26:42.525Z,20.27
2019-03-26T21:29:13.087Z,21.07
2019-03-26T21:31:42.946Z,16.85
2019-03-26T21:34:12.995Z,14.10
2019-03-26T21:36:43.896Z,16.85
2019-03-26T21:39:14.194Z,13.48
2019-03-26T21:41:44.182Z,18.15
2019-03-26T21:44:14.014Z,16.67
2019-03-26T21:46:45.049Z,25.15
2019-03-26T21:49:15.203Z,24.37
2019-03-26T21:51:45.141Z,22.48
2019-03-26T21:54:15.016Z,33.65
2019-03-26T21:56:44.917Z,21.80
2019-03-26T21:59:15.005Z,26.57
2019-03-26T22:01:45.008Z,34.88
2019-03-26T22:04:16.045Z,24.57
2019-03-26T22:06:46.401Z,19.95
2019-03-26T22:09:16.516Z,14.35
2019-03-26T22:11:50.151Z,18.27
2019-03-26T22:14:18.788Z,17.10
2019-03-26T22:16:48.746Z,14.68
2019-03-26T22:19:28.520Z,17.50
2019-03-26T22:21:50.408Z,19.27
2019-03-26T22:24:20.324Z,12.18
2019-03-26T22:26:50.655Z,13.53
2019-03-26T22:29:20.734Z,13.93
2019-03-26T22:31:50.866Z,12.93
2019-03-26T22:34:20.977Z,16.48
2019-03-26T22:36:50.858Z,17.92
2019-03-26T22:39:21.060Z,16.50
2019-03-26T22:41:51.194Z,20.90
2019-03-26T22:44:30.819Z,20.30
2019-03-26T22:46:53.208Z,20.30
2019-03-26T22:49:23.244Z,16.25
2019-03-26T22:51:53.501Z,22.30
2019-03-26T22:54:23.501Z,23.83
2019-03-26T22:56:53.308Z,25.17
2019-03-26T22:59:23.952Z,22.58
2019-03-26T23:01:54.068Z,26.20
2019-03-26T23:04:25.138Z,27.98
2019-03-26T23:06:55.295Z,27.25
2019-03-26T23:09:25.324Z,37.40
2019-03-26T23:11:55.333Z,30.08
2019-03-26T23:14:25.392Z,33.40
2019-03-26T23:16:55.203Z,41.53
2019-03-26T23:19:25.271Z,34.15
2019-03-26T23:21:55.330Z,35.33
2019-03-26T23:24:25.335Z,39.45
2019-03-26T23:26:55.546Z,49.25
2019-03-26T23:29:25.388Z,51.42
2019-03-26T23:31:55.505Z,46.65
2019-03-26T23:34:25.302Z,51.92
2019-03-26T23:36:55.072Z,49.40
2019-03-26T23:39:24.893Z,58.58
2019-03-26T23:41:54.909Z,103.75
2019-03-26T23:44:26.450Z,129.57
2019-03-26T23:46:56.663Z,110.35
2019-03-26T23:49:27.005Z,107.45
2019-03-26T23:51:58.152Z,99.35
2019-03-26T23:54:28.268Z,66.25
2019-03-26T23:56:58.365Z,60.23
2019-03-26T23:59:28.228Z,76.35
